Airfield :
LOGIN :

Register | Disclaimer

   EN    FR    IT 

 










Legend :    VFR   Marginal VFR   IFR   Intensive IFR   Very Intensive IFR
Visi :
Ceiling :
>= 8 km
>= 3000ft
5 to 8 km
1000 to 3000 ft
1500m to 5 km
500 to 1000 ft
800 to 1500m
200 to 500 ft
< 800m
< 200 ft
Symbols :   Thunderstorms  Fog  Heavy snow  Heavy precipitations  Wind > 20 kt
SIGMETs :     Misc.  Thunderstorms  Icing  Turbulence  Mountain Waves  Volcanic Ashes






- Airport Elevation : 194 ft


EBCV - Chièvres

CURRENT METAR :
  • 040725Z AUTO VRB02KT 9999 NCD 17/13 Q1018 BLU

EXPIRED METARs :
  • 040655Z AUTO VRB01KT 9999 NCD 15/13 Q1018 BLU
  • 040625Z AUTO VRB01KT 9000 NCD 14/13 Q1018 BLU
  • 040621Z AUTO VRB01KT 7000 NCD 13/12 Q1018 WHT
  • 040555Z AUTO VRB01KT 4500 BR NCD 12/12 Q1018 GRN
  • 040546Z AUTO VRB01KT 4500 BR FEW004/// 11/11 Q1018 GRN
  • 040525Z AUTO VRB01KT 3200 BR SCT003/// 10/10 Q1018 YLO
  • 040455Z AUTO VRB02KT 0100 FG OVC002/// 09/08 Q1017 RED

TAF AMD TAF EBCV
Valid from the 04 at 07:00 until the 04 at 16:00 UTC


040604Z 0407/0416 VRB03KT 5000 BR FEW005
BECMG 0407/0409 9999 NSW FEW025
BECMG 0412/0414 SCT040 BY EBWM



MET'MAP, your aeronautical weather chart ! - Copyright ORBIFLY December 2007 - Disclaimer

ORBIFLY MET'MAP TEAM :

Programming & Development : Alexandra Zaïnal
Concept & original design : Baudouin d'Aumeries
Assistance for programming : Marc-Olivier Méhu
Technical & hardware support : Manuel Goepfert

Contact : metmap@orbifly.com




SOURCES & CREDITS :

   NOAA